Terminal Aerodrome Forecast
Issued by NWS Pocatello, ID

Home | Current Version | Previous Version | Text Only | Print | Product List | Glossary On
Versions: 1 2 3 4 5 6 7 8 9 10 11 12 13 14 15
000
FTUS45 KPIH 231240 AAA
TAFIDA
TAF AMD
KIDA 231240Z 2313/2412 VRB05KT P6SM VCSH FEW040 OVC070
      TEMPO 2313/2315 BKN025 OVC090
     FM231800 16008KT P6SM -SHRA VCTS BKN035CB OVC080
     FM240300 VRB06KT P6SM VCSH SCT030 OVC060=

USA.gov is the U.S. government's official web portal to all federal, state and local government web resources and services.